sensor_id;sensor_type;location;lat;lon;timestamp;P1;durP1;ratioP1;P2;durP2;ratioP2
25962;SDS011;13760;52.588;13.406;2023-12-20T00:01:48;23.65;;;14.35;;
25962;SDS011;13760;52.588;13.406;2023-12-20T00:04:14;29.17;;;15.32;;
25962;SDS011;13760;52.588;13.406;2023-12-20T00:06:40;24.23;;;14.90;;
25962;SDS011;13760;52.588;13.406;2023-12-20T00:09:05;25.33;;;14.25;;
25962;SDS011;13760;52.588;13.406;2023-12-20T00:11:31;29.52;;;13.65;;
25962;SDS011;13760;52.588;13.406;2023-12-20T00:13:56;23.20;;;14.57;;
25962;SDS011;13760;52.588;13.406;2023-12-20T00:16:22;23.08;;;14.05;;
25962;SDS011;13760;52.588;13.406;2023-12-20T00:18:47;23.92;;;13.77;;
25962;SDS011;13760;52.588;13.406;2023-12-20T00:21:13;25.27;;;14.55;;
25962;SDS011;13760;52.588;13.406;2023-12-20T00:23:38;29.10;;;14.90;;
25962;SDS011;13760;52.588;13.406;2023-12-20T00:26:04;21.60;;;13.48;;
25962;SDS011;13760;52.588;13.406;2023-12-20T00:28:30;19.95;;;13.13;;
25962;SDS011;13760;52.588;13.406;2023-12-20T00:30:55;22.70;;;13.52;;
25962;SDS011;13760;52.588;13.406;2023-12-20T00:33:21;24.90;;;14.20;;
25962;SDS011;13760;52.588;13.406;2023-12-20T00:35:46;25.08;;;13.90;;
25962;SDS011;13760;52.588;13.406;2023-12-20T00:38:12;21.77;;;13.23;;
25962;SDS011;13760;52.588;13.406;2023-12-20T00:40:37;25.27;;;13.27;;
25962;SDS011;13760;52.588;13.406;2023-12-20T00:43:03;24.70;;;14.15;;
25962;SDS011;13760;52.588;13.406;2023-12-20T00:45:28;25.05;;;13.77;;
25962;SDS011;13760;52.588;13.406;2023-12-20T00:47:54;20.98;;;13.45;;
25962;SDS011;13760;52.588;13.406;2023-12-20T00:50:19;20.73;;;13.50;;
25962;SDS011;13760;52.588;13.406;2023-12-20T00:52:46;21.75;;;13.35;;
25962;SDS011;13760;52.588;13.406;2023-12-20T00:55:12;20.80;;;13.20;;
25962;SDS011;13760;52.588;13.406;2023-12-20T00:57:38;24.65;;;13.70;;
25962;SDS011;13760;52.588;13.406;2023-12-20T01:00:03;23.60;;;14.20;;
25962;SDS011;13760;52.588;13.406;2023-12-20T01:02:30;25.80;;;14.05;;
25962;SDS011;13760;52.588;13.406;2023-12-20T01:04:55;25.67;;;15.45;;
25962;SDS011;13760;52.588;13.406;2023-12-20T01:07:20;26.27;;;15.13;;
25962;SDS011;13760;52.588;13.406;2023-12-20T01:09:46;25.15;;;14.27;;
25962;SDS011;13760;52.588;13.406;2023-12-20T01:12:12;29.08;;;15.70;;
25962;SDS011;13760;52.588;13.406;2023-12-20T01:14:37;25.50;;;14.70;;
25962;SDS011;13760;52.588;13.406;2023-12-20T01:17:04;26.95;;;15.00;;
25962;SDS011;13760;52.588;13.406;2023-12-20T01:19:29;36.42;;;16.17;;
25962;SDS011;13760;52.588;13.406;2023-12-20T01:21:55;27.80;;;15.50;;
25962;SDS011;13760;52.588;13.406;2023-12-20T01:24:20;26.38;;;14.65;;
25962;SDS011;13760;52.588;13.406;2023-12-20T01:26:46;28.52;;;14.70;;
25962;SDS011;13760;52.588;13.406;2023-12-20T01:29:12;27.27;;;14.50;;
25962;SDS011;13760;52.588;13.406;2023-12-20T01:31:39;28.17;;;14.55;;
25962;SDS011;13760;52.588;13.406;2023-12-20T01:34:05;26.02;;;14.20;;
25962;SDS011;13760;52.588;13.406;2023-12-20T01:36:31;26.88;;;14.02;;
25962;SDS011;13760;52.588;13.406;2023-12-20T01:38:56;25.88;;;13.65;;
25962;SDS011;13760;52.588;13.406;2023-12-20T01:41:22;24.42;;;13.07;;
25962;SDS011;13760;52.588;13.406;2023-12-20T01:43:47;23.92;;;13.35;;
25962;SDS011;13760;52.588;13.406;2023-12-20T01:46:13;18.92;;;11.00;;
25962;SDS011;13760;52.588;13.406;2023-12-20T01:48:40;21.48;;;11.30;;
25962;SDS011;13760;52.588;13.406;2023-12-20T01:51:06;17.92;;;10.88;;
25962;SDS011;13760;52.588;13.406;2023-12-20T01:53:31;21.55;;;11.43;;
25962;SDS011;13760;52.588;13.406;2023-12-20T01:55:57;18.83;;;11.52;;
25962;SDS011;13760;52.588;13.406;2023-12-20T01:58:24;21.83;;;11.80;;
25962;SDS011;13760;52.588;13.406;2023-12-20T02:00:50;20.02;;;12.05;;
25962;SDS011;13760;52.588;13.406;2023-12-20T02:03:15;23.40;;;11.57;;
25962;SDS011;13760;52.588;13.406;2023-12-20T02:05:43;20.17;;;11.05;;
25962;SDS011;13760;52.588;13.406;2023-12-20T02:08:10;20.30;;;10.55;;
25962;SDS011;13760;52.588;13.406;2023-12-20T02:10:36;17.55;;;10.75;;
25962;SDS011;13760;52.588;13.406;2023-12-20T02:13:01;17.30;;;9.85;;
25962;SDS011;13760;52.588;13.406;2023-12-20T02:15:30;15.82;;;8.88;;
25962;SDS011;13760;52.588;13.406;2023-12-20T02:17:56;17.65;;;9.45;;
25962;SDS011;13760;52.588;13.406;2023-12-20T02:20:22;12.15;;;8.07;;
25962;SDS011;13760;52.588;13.406;2023-12-20T02:22:47;13.88;;;7.55;;
25962;SDS011;13760;52.588;13.406;2023-12-20T02:25:13;15.23;;;7.82;;
25962;SDS011;13760;52.588;13.406;2023-12-20T02:27:39;14.23;;;7.05;;
25962;SDS011;13760;52.588;13.406;2023-12-20T02:30:05;11.40;;;6.75;;
25962;SDS011;13760;52.588;13.406;2023-12-20T02:32:31;11.38;;;6.60;;
25962;SDS011;13760;52.588;13.406;2023-12-20T02:34:57;11.82;;;6.20;;
25962;SDS011;13760;52.588;13.406;2023-12-20T02:37:23;11.32;;;5.40;;
25962;SDS011;13760;52.588;13.406;2023-12-20T02:39:48;11.77;;;5.45;;
25962;SDS011;13760;52.588;13.406;2023-12-20T02:42:14;10.25;;;5.07;;
25962;SDS011;13760;52.588;13.406;2023-12-20T02:44:40;9.45;;;4.78;;
25962;SDS011;13760;52.588;13.406;2023-12-20T02:47:05;14.10;;;5.05;;
25962;SDS011;13760;52.588;13.406;2023-12-20T02:49:31;12.85;;;4.32;;
25962;SDS011;13760;52.588;13.406;2023-12-20T02:51:56;15.20;;;4.47;;
25962;SDS011;13760;52.588;13.406;2023-12-20T02:54:22;10.63;;;4.40;;
25962;SDS011;13760;52.588;13.406;2023-12-20T02:56:47;10.90;;;3.90;;
25962;SDS011;13760;52.588;13.406;2023-12-20T02:59:13;10.10;;;4.40;;
25962;SDS011;13760;52.588;13.406;2023-12-20T03:01:41;9.80;;;4.45;;
25962;SDS011;13760;52.588;13.406;2023-12-20T03:04:08;15.80;;;3.63;;
25962;SDS011;13760;52.588;13.406;2023-12-20T03:06:33;11.82;;;4.47;;
25962;SDS011;13760;52.588;13.406;2023-12-20T03:08:59;10.77;;;4.90;;
25962;SDS011;13760;52.588;13.406;2023-12-20T03:11:28;10.80;;;4.40;;
25962;SDS011;13760;52.588;13.406;2023-12-20T03:13:54;10.70;;;4.63;;
25962;SDS011;13760;52.588;13.406;2023-12-20T03:16:20;10.43;;;4.80;;
25962;SDS011;13760;52.588;13.406;2023-12-20T03:18:45;9.25;;;4.18;;
25962;SDS011;13760;52.588;13.406;2023-12-20T03:21:11;19.33;;;4.40;;
25962;SDS011;13760;52.588;13.406;2023-12-20T03:23:36;9.95;;;4.18;;
25962;SDS011;13760;52.588;13.406;2023-12-20T03:26:02;15.55;;;4.45;;
25962;SDS011;13760;52.588;13.406;2023-12-20T03:28:28;13.10;;;4.40;;
25962;SDS011;13760;52.588;13.406;2023-12-20T03:30:56;7.75;;;3.30;;
25962;SDS011;13760;52.588;13.406;2023-12-20T03:33:21;18.15;;;3.95;;
25962;SDS011;13760;52.588;13.406;2023-12-20T03:35:47;16.02;;;4.40;;
25962;SDS011;13760;52.588;13.406;2023-12-20T03:38:12;16.42;;;4.25;;
25962;SDS011;13760;52.588;13.406;2023-12-20T03:40:38;12.10;;;3.60;;
25962;SDS011;13760;52.588;13.406;2023-12-20T03:43:04;10.35;;;3.45;;
25962;SDS011;13760;52.588;13.406;2023-12-20T03:45:29;13.55;;;3.15;;
25962;SDS011;13760;52.588;13.406;2023-12-20T03:47:55;18.73;;;3.90;;
25962;SDS011;13760;52.588;13.406;2023-12-20T03:50:24;14.68;;;3.47;;
25962;SDS011;13760;52.588;13.406;2023-12-20T03:52:50;14.35;;;3.22;;
25962;SDS011;13760;52.588;13.406;2023-12-20T03:55:16;11.45;;;3.33;;
25962;SDS011;13760;52.588;13.406;2023-12-20T03:57:42;13.43;;;3.90;;
25962;SDS011;13760;52.588;13.406;2023-12-20T04:00:07;21.67;;;4.40;;
25962;SDS011;13760;52.588;13.406;2023-12-20T04:02:35;8.40;;;3.72;;
25962;SDS011;13760;52.588;13.406;2023-12-20T04:05:01;16.13;;;4.00;;
25962;SDS011;13760;52.588;13.406;2023-12-20T04:07:27;13.98;;;4.10;;
25962;SDS011;13760;52.588;13.406;2023-12-20T04:09:52;17.83;;;4.03;;
25962;SDS011;13760;52.588;13.406;2023-12-20T04:12:18;21.42;;;4.20;;
25962;SDS011;13760;52.588;13.406;2023-12-20T04:14:43;12.55;;;3.90;;
25962;SDS011;13760;52.588;13.406;2023-12-20T04:17:09;11.50;;;4.03;;
25962;SDS011;13760;52.588;13.406;2023-12-20T04:19:34;14.80;;;3.83;;
25962;SDS011;13760;52.588;13.406;2023-12-20T04:22:00;16.23;;;4.15;;
25962;SDS011;13760;52.588;13.406;2023-12-20T04:24:25;21.33;;;4.07;;
25962;SDS011;13760;52.588;13.406;2023-12-20T04:26:51;19.65;;;3.53;;
25962;SDS011;13760;52.588;13.406;2023-12-20T04:29:16;20.77;;;4.05;;
25962;SDS011;13760;52.588;13.406;2023-12-20T04:31:42;20.13;;;4.10;;
25962;SDS011;13760;52.588;13.406;2023-12-20T04:34:07;18.45;;;3.47;;
25962;SDS011;13760;52.588;13.406;2023-12-20T04:36:33;18.38;;;3.90;;
25962;SDS011;13760;52.588;13.406;2023-12-20T04:38:59;20.13;;;3.80;;
25962;SDS011;13760;52.588;13.406;2023-12-20T04:41:24;14.68;;;3.65;;
25962;SDS011;13760;52.588;13.406;2023-12-20T04:43:50;21.38;;;3.83;;
25962;SDS011;13760;52.588;13.406;2023-12-20T04:46:16;16.38;;;3.35;;
25962;SDS011;13760;52.588;13.406;2023-12-20T04:48:41;10.07;;;3.00;;
25962;SDS011;13760;52.588;13.406;2023-12-20T04:51:07;18.63;;;3.17;;
25962;SDS011;13760;52.588;13.406;2023-12-20T04:53:32;18.63;;;3.08;;
25962;SDS011;13760;52.588;13.406;2023-12-20T04:55:58;15.05;;;2.90;;
25962;SDS011;13760;52.588;13.406;2023-12-20T04:58:23;18.75;;;3.10;;
25962;SDS011;13760;52.588;13.406;2023-12-20T05:00:49;14.98;;;3.17;;
25962;SDS011;13760;52.588;13.406;2023-12-20T05:03:14;18.10;;;4.40;;
25962;SDS011;13760;52.588;13.406;2023-12-20T05:05:40;17.65;;;3.50;;
25962;SDS011;13760;52.588;13.406;2023-12-20T05:08:05;23.02;;;3.45;;
25962;SDS011;13760;52.588;13.406;2023-12-20T05:10:31;18.90;;;3.88;;
25962;SDS011;13760;52.588;13.406;2023-12-20T05:12:56;15.10;;;3.58;;
25962;SDS011;13760;52.588;13.406;2023-12-20T05:15:22;15.80;;;3.25;;
25962;SDS011;13760;52.588;13.406;2023-12-20T05:17:47;20.48;;;3.72;;
25962;SDS011;13760;52.588;13.406;2023-12-20T05:20:13;11.48;;;3.20;;
25962;SDS011;13760;52.588;13.406;2023-12-20T05:22:40;20.27;;;3.63;;
25962;SDS011;13760;52.588;13.406;2023-12-20T05:25:10;15.75;;;4.03;;
25962;SDS011;13760;52.588;13.406;2023-12-20T05:27:36;19.63;;;3.08;;
25962;SDS011;13760;52.588;13.406;2023-12-20T05:30:01;22.92;;;4.20;;
25962;SDS011;13760;52.588;13.406;2023-12-20T05:32:28;22.90;;;3.95;;
25962;SDS011;13760;52.588;13.406;2023-12-20T05:34:53;23.05;;;4.13;;
25962;SDS011;13760;52.588;13.406;2023-12-20T05:37:19;20.10;;;3.78;;
25962;SDS011;13760;52.588;13.406;2023-12-20T05:39:44;20.83;;;4.38;;
25962;SDS011;13760;52.588;13.406;2023-12-20T05:42:10;23.08;;;4.35;;
25962;SDS011;13760;52.588;13.406;2023-12-20T05:44:35;20.80;;;3.95;;
25962;SDS011;13760;52.588;13.406;2023-12-20T05:47:01;21.85;;;4.22;;
25962;SDS011;13760;52.588;13.406;2023-12-20T05:49:27;13.90;;;3.45;;
25962;SDS011;13760;52.588;13.406;2023-12-20T05:51:52;25.20;;;3.50;;
25962;SDS011;13760;52.588;13.406;2023-12-20T05:54:18;16.80;;;3.70;;
25962;SDS011;13760;52.588;13.406;2023-12-20T05:56:44;14.55;;;3.25;;
25962;SDS011;13760;52.588;13.406;2023-12-20T05:59:10;20.08;;;3.60;;
25962;SDS011;13760;52.588;13.406;2023-12-20T06:01:35;20.42;;;3.45;;
25962;SDS011;13760;52.588;13.406;2023-12-20T06:04:01;18.65;;;3.10;;
25962;SDS011;13760;52.588;13.406;2023-12-20T06:06:28;22.33;;;4.28;;
25962;SDS011;13760;52.588;13.406;2023-12-20T06:08:53;23.80;;;3.95;;
25962;SDS011;13760;52.588;13.406;2023-12-20T06:11:19;18.77;;;3.35;;
25962;SDS011;13760;52.588;13.406;2023-12-20T06:13:44;18.00;;;3.22;;
25962;SDS011;13760;52.588;13.406;2023-12-20T06:16:10;20.63;;;3.60;;
25962;SDS011;13760;52.588;13.406;2023-12-20T06:18:36;18.27;;;3.42;;
25962;SDS011;13760;52.588;13.406;2023-12-20T06:21:02;26.95;;;3.72;;
25962;SDS011;13760;52.588;13.406;2023-12-20T06:23:28;21.58;;;3.33;;
25962;SDS011;13760;52.588;13.406;2023-12-20T06:25:54;18.83;;;2.90;;
25962;SDS011;13760;52.588;13.406;2023-12-20T06:28:19;26.23;;;3.47;;
25962;SDS011;13760;52.588;13.406;2023-12-20T06:30:45;17.95;;;4.10;;
25962;SDS011;13760;52.588;13.406;2023-12-20T06:33:12;13.93;;;3.33;;
25962;SDS011;13760;52.588;13.406;2023-12-20T06:35:38;23.40;;;4.20;;
25962;SDS011;13760;52.588;13.406;2023-12-20T06:38:04;13.52;;;3.80;;
25962;SDS011;13760;52.588;13.406;2023-12-20T06:40:29;21.52;;;3.58;;
25962;SDS011;13760;52.588;13.406;2023-12-20T06:42:55;20.33;;;3.75;;
25962;SDS011;13760;52.588;13.406;2023-12-20T06:45:20;19.67;;;4.32;;
25962;SDS011;13760;52.588;13.406;2023-12-20T06:47:46;14.05;;;3.30;;
25962;SDS011;13760;52.588;13.406;2023-12-20T06:50:11;17.00;;;3.70;;
25962;SDS011;13760;52.588;13.406;2023-12-20T06:52:37;27.42;;;4.07;;
25962;SDS011;13760;52.588;13.406;2023-12-20T06:55:02;15.40;;;3.38;;
25962;SDS011;13760;52.588;13.406;2023-12-20T06:57:29;14.93;;;3.80;;
25962;SDS011;13760;52.588;13.406;2023-12-20T06:59:54;19.30;;;3.97;;
25962;SDS011;13760;52.588;13.406;2023-12-20T07:02:20;18.10;;;4.00;;
25962;SDS011;13760;52.588;13.406;2023-12-20T07:04:47;16.85;;;4.30;;
25962;SDS011;13760;52.588;13.406;2023-12-20T07:07:16;19.60;;;4.32;;
25962;SDS011;13760;52.588;13.406;2023-12-20T07:09:41;14.50;;;3.85;;
25962;SDS011;13760;52.588;13.406;2023-12-20T07:12:08;18.10;;;4.25;;
25962;SDS011;13760;52.588;13.406;2023-12-20T07:14:34;21.02;;;4.05;;
25962;SDS011;13760;52.588;13.406;2023-12-20T07:16:59;19.70;;;4.53;;
25962;SDS011;13760;52.588;13.406;2023-12-20T07:19:25;18.48;;;4.68;;
25962;SDS011;13760;52.588;13.406;2023-12-20T07:21:50;23.52;;;4.35;;
25962;SDS011;13760;52.588;13.406;2023-12-20T07:24:16;22.98;;;5.00;;
25962;SDS011;13760;52.588;13.406;2023-12-20T07:26:41;19.35;;;4.57;;
25962;SDS011;13760;52.588;13.406;2023-12-20T07:29:08;21.70;;;5.63;;
25962;SDS011;13760;52.588;13.406;2023-12-20T07:31:33;17.05;;;4.28;;
25962;SDS011;13760;52.588;13.406;2023-12-20T07:33:59;22.92;;;4.80;;
25962;SDS011;13760;52.588;13.406;2023-12-20T07:36:25;18.73;;;5.15;;
25962;SDS011;13760;52.588;13.406;2023-12-20T07:38:50;16.75;;;4.90;;
25962;SDS011;13760;52.588;13.406;2023-12-20T07:41:16;18.98;;;4.72;;
25962;SDS011;13760;52.588;13.406;2023-12-20T07:43:42;17.75;;;4.10;;
25962;SDS011;13760;52.588;13.406;2023-12-20T07:46:16;17.35;;;4.53;;
25962;SDS011;13760;52.588;13.406;2023-12-20T07:48:43;24.45;;;4.47;;
25962;SDS011;13760;52.588;13.406;2023-12-20T07:51:08;18.73;;;4.00;;
25962;SDS011;13760;52.588;13.406;2023-12-20T07:53:34;18.88;;;3.92;;
25962;SDS011;13760;52.588;13.406;2023-12-20T07:56:00;16.33;;;4.18;;
25962;SDS011;13760;52.588;13.406;2023-12-20T07:58:26;20.00;;;4.32;;
25962;SDS011;13760;52.588;13.406;2023-12-20T08:00:51;18.92;;;3.67;;
25962;SDS011;13760;52.588;13.406;2023-12-20T08:03:17;16.92;;;3.60;;
25962;SDS011;13760;52.588;13.406;2023-12-20T08:05:42;16.52;;;3.63;;
25962;SDS011;13760;52.588;13.406;2023-12-20T08:08:08;17.05;;;3.90;;
25962;SDS011;13760;52.588;13.406;2023-12-20T08:10:33;13.52;;;3.25;;
25962;SDS011;13760;52.588;13.406;2023-12-20T08:13:09;21.45;;;3.67;;
25962;SDS011;13760;52.588;13.406;2023-12-20T08:15:39;17.67;;;3.38;;
25962;SDS011;13760;52.588;13.406;2023-12-20T08:18:04;17.23;;;3.03;;
25962;SDS011;13760;52.588;13.406;2023-12-20T08:20:30;14.85;;;3.58;;
25962;SDS011;13760;52.588;13.406;2023-12-20T08:22:55;16.80;;;3.45;;
25962;SDS011;13760;52.588;13.406;2023-12-20T08:25:21;16.30;;;3.92;;
25962;SDS011;13760;52.588;13.406;2023-12-20T08:27:49;12.85;;;3.50;;
25962;SDS011;13760;52.588;13.406;2023-12-20T08:30:15;15.48;;;3.90;;
25962;SDS011;13760;52.588;13.406;2023-12-20T08:32:45;14.55;;;3.50;;
25962;SDS011;13760;52.588;13.406;2023-12-20T08:35:11;11.10;;;3.33;;
25962;SDS011;13760;52.588;13.406;2023-12-20T08:37:36;18.83;;;3.50;;
25962;SDS011;13760;52.588;13.406;2023-12-20T08:40:02;14.85;;;3.28;;
25962;SDS011;13760;52.588;13.406;2023-12-20T08:42:28;20.65;;;4.45;;
25962;SDS011;13760;52.588;13.406;2023-12-20T08:44:56;21.50;;;4.20;;
25962;SDS011;13760;52.588;13.406;2023-12-20T08:47:23;14.30;;;3.20;;
25962;SDS011;13760;52.588;13.406;2023-12-20T08:49:49;16.75;;;4.00;;
25962;SDS011;13760;52.588;13.406;2023-12-20T08:52:14;15.75;;;3.80;;
25962;SDS011;13760;52.588;13.406;2023-12-20T08:54:40;20.30;;;3.38;;
25962;SDS011;13760;52.588;13.406;2023-12-20T08:57:05;18.30;;;3.22;;
25962;SDS011;13760;52.588;13.406;2023-12-20T08:59:32;16.52;;;3.00;;
25962;SDS011;13760;52.588;13.406;2023-12-20T09:01:57;11.95;;;3.22;;
25962;SDS011;13760;52.588;13.406;2023-12-20T09:04:23;18.77;;;3.60;;
25962;SDS011;13760;52.588;13.406;2023-12-20T09:06:49;13.13;;;3.10;;
25962;SDS011;13760;52.588;13.406;2023-12-20T09:09:15;11.77;;;3.15;;
25962;SDS011;13760;52.588;13.406;2023-12-20T09:11:40;18.20;;;3.00;;
25962;SDS011;13760;52.588;13.406;2023-12-20T09:14:07;15.90;;;3.13;;
25962;SDS011;13760;52.588;13.406;2023-12-20T09:16:32;17.13;;;3.42;;
25962;SDS011;13760;52.588;13.406;2023-12-20T09:19:01;16.35;;;3.22;;
25962;SDS011;13760;52.588;13.406;2023-12-20T09:21:26;15.95;;;3.60;;
25962;SDS011;13760;52.588;13.406;2023-12-20T09:23:52;13.90;;;2.55;;
25962;SDS011;13760;52.588;13.406;2023-12-20T09:26:17;15.05;;;3.28;;
25962;SDS011;13760;52.588;13.406;2023-12-20T09:28:43;14.55;;;3.60;;
25962;SDS011;13760;52.588;13.406;2023-12-20T09:31:09;12.77;;;2.80;;
25962;SDS011;13760;52.588;13.406;2023-12-20T09:33:35;18.13;;;3.55;;
25962;SDS011;13760;52.588;13.406;2023-12-20T09:36:00;17.52;;;3.83;;
25962;SDS011;13760;52.588;13.406;2023-12-20T09:38:26;25.63;;;3.63;;
25962;SDS011;13760;52.588;13.406;2023-12-20T09:40:52;19.10;;;3.22;;
25962;SDS011;13760;52.588;13.406;2023-12-20T09:43:19;9.55;;;3.05;;
25962;SDS011;13760;52.588;13.406;2023-12-20T09:45:47;15.15;;;2.92;;
25962;SDS011;13760;52.588;13.406;2023-12-20T09:48:13;21.80;;;3.97;;
25962;SDS011;13760;52.588;13.406;2023-12-20T09:50:41;12.15;;;2.38;;
25962;SDS011;13760;52.588;13.406;2023-12-20T09:53:10;20.17;;;3.95;;
25962;SDS011;13760;52.588;13.406;2023-12-20T09:55:39;15.43;;;2.85;;
25962;SDS011;13760;52.588;13.406;2023-12-20T09:58:06;18.60;;;3.30;;
25962;SDS011;13760;52.588;13.406;2023-12-20T10:00:33;17.15;;;3.00;;
25962;SDS011;13760;52.588;13.406;2023-12-20T10:03:00;13.23;;;3.50;;
25962;SDS011;13760;52.588;13.406;2023-12-20T10:05:30;15.93;;;3.28;;
25962;SDS011;13760;52.588;13.406;2023-12-20T10:07:57;18.70;;;2.95;;
25962;SDS011;13760;52.588;13.406;2023-12-20T10:10:24;14.60;;;2.63;;
25962;SDS011;13760;52.588;13.406;2023-12-20T10:13:06;17.75;;;4.00;;
25962;SDS011;13760;52.588;13.406;2023-12-20T10:15:33;15.27;;;3.15;;
25962;SDS011;13760;52.588;13.406;2023-12-20T10:18:00;19.98;;;3.78;;
25962;SDS011;13760;52.588;13.406;2023-12-20T10:20:27;17.30;;;2.83;;
25962;SDS011;13760;52.588;13.406;2023-12-20T10:22:54;12.93;;;3.35;;
25962;SDS011;13760;52.588;13.406;2023-12-20T10:25:20;12.20;;;2.97;;
25962;SDS011;13760;52.588;13.406;2023-12-20T10:27:46;16.13;;;3.50;;
25962;SDS011;13760;52.588;13.406;2023-12-20T10:30:12;16.13;;;3.63;;
25962;SDS011;13760;52.588;13.406;2023-12-20T10:32:42;17.38;;;3.53;;
25962;SDS011;13760;52.588;13.406;2023-12-20T10:35:10;14.20;;;2.65;;
25962;SDS011;13760;52.588;13.406;2023-12-20T10:37:36;16.10;;;3.50;;
25962;SDS011;13760;52.588;13.406;2023-12-20T10:40:03;20.42;;;3.33;;
25962;SDS011;13760;52.588;13.406;2023-12-20T10:42:30;20.65;;;3.88;;
25962;SDS011;13760;52.588;13.406;2023-12-20T10:44:58;15.52;;;3.50;;
25962;SDS011;13760;52.588;13.406;2023-12-20T10:47:24;17.75;;;3.53;;
25962;SDS011;13760;52.588;13.406;2023-12-20T10:49:52;17.25;;;3.90;;
25962;SDS011;13760;52.588;13.406;2023-12-20T10:52:18;19.70;;;3.50;;
25962;SDS011;13760;52.588;13.406;2023-12-20T10:54:47;18.05;;;3.47;;
25962;SDS011;13760;52.588;13.406;2023-12-20T10:57:13;13.05;;;3.15;;
25962;SDS011;13760;52.588;13.406;2023-12-20T10:59:39;14.32;;;3.30;;
25962;SDS011;13760;52.588;13.406;2023-12-20T11:02:06;22.40;;;3.63;;
25962;SDS011;13760;52.588;13.406;2023-12-20T11:04:40;20.60;;;3.20;;
25962;SDS011;13760;52.588;13.406;2023-12-20T11:07:18;13.57;;;2.75;;
25962;SDS011;13760;52.588;13.406;2023-12-20T11:09:56;22.25;;;4.03;;
25962;SDS011;13760;52.588;13.406;2023-12-20T11:12:32;20.58;;;3.45;;
25962;SDS011;13760;52.588;13.406;2023-12-20T11:15:17;13.73;;;3.38;;
25962;SDS011;13760;52.588;13.406;2023-12-20T11:17:44;16.08;;;3.20;;
25962;SDS011;13760;52.588;13.406;2023-12-20T11:20:11;13.43;;;2.80;;
25962;SDS011;13760;52.588;13.406;2023-12-20T11:22:38;18.25;;;3.55;;
25962;SDS011;13760;52.588;13.406;2023-12-20T11:25:17;18.88;;;3.38;;
25962;SDS011;13760;52.588;13.406;2023-12-20T11:27:42;18.10;;;3.10;;
25962;SDS011;13760;52.588;13.406;2023-12-20T11:30:08;20.40;;;3.53;;
25962;SDS011;13760;52.588;13.406;2023-12-20T11:32:35;22.67;;;3.78;;
25962;SDS011;13760;52.588;13.406;2023-12-20T11:37:35;14.05;;;3.30;;
25962;SDS011;13760;52.588;13.406;2023-12-20T11:40:02;20.98;;;4.47;;
25962;SDS011;13760;52.588;13.406;2023-12-20T11:42:32;17.95;;;3.95;;
25962;SDS011;13760;52.588;13.406;2023-12-20T11:44:59;22.60;;;3.22;;
25962;SDS011;13760;52.588;13.406;2023-12-20T11:47:28;18.45;;;3.95;;
25962;SDS011;13760;52.588;13.406;2023-12-20T11:49:55;21.80;;;3.42;;
25962;SDS011;13760;52.588;13.406;2023-12-20T11:52:21;14.35;;;3.40;;
25962;SDS011;13760;52.588;13.406;2023-12-20T11:54:46;16.23;;;3.58;;
25962;SDS011;13760;52.588;13.406;2023-12-20T11:57:12;18.60;;;3.17;;
25962;SDS011;13760;52.588;13.406;2023-12-20T11:59:38;15.38;;;3.22;;
25962;SDS011;13760;52.588;13.406;2023-12-20T12:02:04;26.35;;;4.60;;
25962;SDS011;13760;52.588;13.406;2023-12-20T12:04:30;15.50;;;2.85;;
25962;SDS011;13760;52.588;13.406;2023-12-20T12:06:56;10.57;;;3.15;;
25962;SDS011;13760;52.588;13.406;2023-12-20T12:09:21;13.75;;;3.20;;
25962;SDS011;13760;52.588;13.406;2023-12-20T12:11:47;19.23;;;3.40;;
25962;SDS011;13760;52.588;13.406;2023-12-20T12:14:12;17.35;;;3.45;;
25962;SDS011;13760;52.588;13.406;2023-12-20T12:16:38;16.33;;;3.50;;
25962;SDS011;13760;52.588;13.406;2023-12-20T12:19:03;11.70;;;2.70;;
25962;SDS011;13760;52.588;13.406;2023-12-20T12:21:29;17.05;;;3.90;;
25962;SDS011;13760;52.588;13.406;2023-12-20T12:24:05;14.23;;;3.47;;
25962;SDS011;13760;52.588;13.406;2023-12-20T12:26:32;15.68;;;3.50;;
25962;SDS011;13760;52.588;13.406;2023-12-20T12:28:57;12.85;;;2.95;;
25962;SDS011;13760;52.588;13.406;2023-12-20T12:31:23;14.70;;;3.17;;
25962;SDS011;13760;52.588;13.406;2023-12-20T12:33:50;12.68;;;3.42;;
25962;SDS011;13760;52.588;13.406;2023-12-20T12:36:16;22.13;;;3.63;;
25962;SDS011;13760;52.588;13.406;2023-12-20T12:38:44;20.17;;;3.92;;
25962;SDS011;13760;52.588;13.406;2023-12-20T12:41:12;10.73;;;3.47;;
25962;SDS011;13760;52.588;13.406;2023-12-20T12:43:38;19.40;;;3.90;;
25962;SDS011;13760;52.588;13.406;2023-12-20T12:46:03;19.08;;;4.40;;
25962;SDS011;13760;52.588;13.406;2023-12-20T12:48:29;15.52;;;3.75;;
25962;SDS011;13760;52.588;13.406;2023-12-20T12:50:55;12.82;;;3.90;;
25962;SDS011;13760;52.588;13.406;2023-12-20T12:53:24;20.33;;;4.35;;
25962;SDS011;13760;52.588;13.406;2023-12-20T12:55:50;16.00;;;3.92;;
25962;SDS011;13760;52.588;13.406;2023-12-20T12:58:16;13.80;;;4.22;;
25962;SDS011;13760;52.588;13.406;2023-12-20T13:00:41;19.60;;;4.38;;
25962;SDS011;13760;52.588;13.406;2023-12-20T13:03:07;14.95;;;4.05;;
25962;SDS011;13760;52.588;13.406;2023-12-20T13:05:33;13.95;;;3.80;;
25962;SDS011;13760;52.588;13.406;2023-12-20T13:07:58;14.75;;;4.88;;
25962;SDS011;13760;52.588;13.406;2023-12-20T13:10:24;17.70;;;4.53;;
25962;SDS011;13760;52.588;13.406;2023-12-20T13:12:50;11.68;;;4.00;;
25962;SDS011;13760;52.588;13.406;2023-12-20T13:15:15;18.27;;;5.28;;
25962;SDS011;13760;52.588;13.406;2023-12-20T13:17:41;13.40;;;4.03;;
25962;SDS011;13760;52.588;13.406;2023-12-20T13:20:07;15.98;;;4.45;;
25962;SDS011;13760;52.588;13.406;2023-12-20T13:22:33;8.43;;;3.47;;
25962;SDS011;13760;52.588;13.406;2023-12-20T13:24:58;11.43;;;3.78;;
25962;SDS011;13760;52.588;13.406;2023-12-20T13:27:23;7.45;;;3.20;;
25962;SDS011;13760;52.588;13.406;2023-12-20T13:29:49;7.35;;;2.67;;
25962;SDS011;13760;52.588;13.406;2023-12-20T13:32:15;8.15;;;2.33;;
25962;SDS011;13760;52.588;13.406;2023-12-20T13:34:40;12.15;;;2.63;;
25962;SDS011;13760;52.588;13.406;2023-12-20T13:37:06;6.88;;;2.30;;
25962;SDS011;13760;52.588;13.406;2023-12-20T13:39:31;12.60;;;2.20;;
25962;SDS011;13760;52.588;13.406;2023-12-20T13:41:57;5.25;;;1.92;;
25962;SDS011;13760;52.588;13.406;2023-12-20T13:44:23;3.33;;;1.83;;
25962;SDS011;13760;52.588;13.406;2023-12-20T13:46:49;6.47;;;1.77;;
25962;SDS011;13760;52.588;13.406;2023-12-20T13:49:15;5.60;;;1.80;;
25962;SDS011;13760;52.588;13.406;2023-12-20T13:51:40;4.63;;;1.90;;
25962;SDS011;13760;52.588;13.406;2023-12-20T13:54:06;7.25;;;1.85;;
25962;SDS011;13760;52.588;13.406;2023-12-20T13:56:31;5.38;;;1.60;;
25962;SDS011;13760;52.588;13.406;2023-12-20T13:58:58;5.55;;;1.65;;
25962;SDS011;13760;52.588;13.406;2023-12-20T14:01:24;5.13;;;1.40;;
25962;SDS011;13760;52.588;13.406;2023-12-20T14:03:51;8.98;;;1.65;;
25962;SDS011;13760;52.588;13.406;2023-12-20T14:06:17;4.10;;;1.20;;
25962;SDS011;13760;52.588;13.406;2023-12-20T14:08:42;3.60;;;1.10;;
25962;SDS011;13760;52.588;13.406;2023-12-20T14:11:08;5.10;;;1.38;;
25962;SDS011;13760;52.588;13.406;2023-12-20T14:13:34;3.53;;;1.20;;
25962;SDS011;13760;52.588;13.406;2023-12-20T14:16:00;5.28;;;1.10;;
25962;SDS011;13760;52.588;13.406;2023-12-20T14:18:26;5.63;;;1.40;;